Uehling, Nebraska
Current Conditions -  °F | °C
As of 9:54 AM on Friday 24 Oct 2014 (Local Time) from KTQE Reporting Station
Haze Haze  
Wind Chill: 62°   Ceiling: Unl
Heat Index: 62°   Visibility: 5mi
Dew Point: 59°   Wind: 9mph
Humidity: 90%   Direction: 190°S
Pressure: 29.92"   Gusts: NA
Location:  41.73°N, 96.51°W
Report Text: KTQE 241454Z AUTO 19008KT 5SM BR CLR 17/15 A2992 RMK AO2 SLP127 T01670150 53005
Loading
Personal Weather Stations






























Interactive Weather Map
Tropical Storm Tracking
New forecast layout! Learn more

10-Day Weather Forecast

Advertisements
Track Severe Weather on mobile